Hornstind — LEBD — position and weather

sailwx.info

Track history (hours):
 
Tides and Currents Weather Stations Pressure Air Temp Water Temp Dewpoint Dewpoint Depression Visibility Wind Speed Wind Dir Waves Ship Positions

Hornstind

Last reported at 2017-Dec-17 21:30 UTC. Time now 2017-Dec-17 21:58 UTC.
Position N 65°49' E 012°26'.

Length 70 m.

Type: Passenger vessel. MMSI: 257147000.

Date/timePositionNaut miles runAvg speedWind from/ knotsBaromVisibWave heightAir tempDewpointWater temp
2017-Dec-17 21:30N 65°49' E 012°26'0 0.0
2017-Dec-17 21:00N 65°49' E 012°26'0 0.0
2017-Dec-17 20:30N 65°49' E 012°26'0 0.0
2017-Dec-17 20:00N 65°49' E 012°26'0 0.0
2017-Dec-17 19:29N 65°49' E 012°26'3 5.9
2017-Dec-17 18:59N 65°47' E 012°30'4 8.9
2017-Dec-17 18:30N 65°43' E 012°28'3 6.7
2017-Dec-17 18:00N 65°46' E 012°30'4 7.1
2017-Dec-17 17:29N 65°49' E 012°26'0 0.7
2017-Dec-17 17:00N 65°49' E 012°26'0 0.7
2017-Dec-17 16:30N 65°49' E 012°26'5 9.4
2017-Dec-17 16:00N 65°46' E 012°33'4 7.6
2017-Dec-17 15:30N 65°43' E 012°28'2 4.4
2017-Dec-17 15:00N 65°45' E 012°29'5 9.2
2017-Dec-17 14:30N 65°49' E 012°26'0 0.0
2017-Dec-17 14:00N 65°49' E 012°26'0 0.0
2017-Dec-17 13:30N 65°49' E 012°26'0 0.0
2017-Dec-17 13:00N 65°49' E 012°26'0 0.0
2017-Dec-17 12:30N 65°49' E 012°26'1 2.6
2017-Dec-17 12:00N 65°48' E 012°24'713.2
2017-Dec-17 11:30N 65°42' E 012°16'612.6
2017-Dec-17 11:00N 65°36' E 012°20'2 4.0
2017-Dec-17 10:30N 65°34' E 012°23'2 4.4
2017-Dec-17 10:00N 65°35' E 012°18'0 0.0
2017-Dec-17 09:30N 65°35' E 012°18'2 4.5
2017-Dec-17 09:00N 65°35' E 012°24'2 4.2
2017-Dec-17 08:29N 65°35' E 012°18'2 3.5
2017-Dec-17 08:00N 65°35' E 012°22'2 3.4
2017-Dec-17 07:30N 65°35' E 012°18'0 0.0
2017-Dec-17 07:00N 65°35' E 012°18'0 0.0
2017-Dec-17 06:30N 65°35' E 012°18'0 0.0
2017-Dec-17 06:00N 65°35' E 012°18'0 0.0
2017-Dec-17 05:30N 65°35' E 012°18'0 0.0
2017-Dec-17 05:00N 65°35' E 012°18'0 0.0
2017-Dec-17 04:30N 65°35' E 012°18'0 0.0
2017-Dec-17 04:00N 65°35' E 012°18'0 0.0
2017-Dec-17 03:30N 65°35' E 012°18'0 0.0
2017-Dec-17 03:00N 65°35' E 012°18'0 0.0
2017-Dec-17 02:30N 65°35' E 012°18'0 0.0
2017-Dec-17 02:00N 65°35' E 012°18'0 0.0
2017-Dec-17 01:30N 65°35' E 012°18'0 0.0
2017-Dec-17 00:59N 65°35' E 012°18'0 0.0
2017-Dec-17 00:30N 65°35' E 012°18'0 0.0
2017-Dec-17 00:00N 65°35' E 012°18'0 0.0
2017-Dec-16 23:30N 65°35' E 012°18'0 0.0
2017-Dec-16 23:00N 65°35' E 012°18'0 0.0
2017-Dec-16 22:30N 65°35' E 012°18'0 0.0
2017-Dec-16 22:00N 65°35' E 012°18'2 4.6
2017-Dec-16 21:30N 65°35' E 012°24'1 2.2
2017-Dec-16 21:00N 65°35' E 012°21'1 2.1
2017-Dec-16 20:30N 65°35' E 012°24'1 2.9
2017-Dec-16 20:00N 65°35' E 012°20'1 1.6
2017-Dec-16 19:30N 65°35' E 012°18'1 2.3
2017-Dec-16 19:00N 65°35' E 012°21'1 2.2
2017-Dec-16 18:30N 65°35' E 012°24'0 0.0
2017-Dec-16 18:00N 65°35' E 012°24'2 4.5
2017-Dec-16 17:30N 65°35' E 012°18'0 0.0
2017-Dec-16 17:00N 65°35' E 012°18'2 3.7
2017-Dec-16 16:30N 65°35' E 012°23'0 0.8
2017-Dec-16 16:00N 65°35' E 012°24'0 0.0
2017-Dec-16 15:30N 65°35' E 012°24'0 0.3
2017-Dec-16 15:00N 65°35' E 012°24'2 4.7
2017-Dec-16 14:30N 65°35' E 012°18'0 0.0
2017-Dec-16 14:00N 65°35' E 012°18'1 1.4
2017-Dec-16 13:30N 65°35' E 012°20'2 3.2
2017-Dec-16 13:00N 65°35' E 012°24'0 0.0
2017-Dec-16 12:30N 65°35' E 012°24'2 4.4
2017-Dec-16 11:59N 65°35' E 012°18'2 4.6
2017-Dec-16 11:30N 65°35' E 012°24'0 0.0
2017-Dec-16 11:00N 65°35' E 012°24'0 0.1
2017-Dec-16 10:30N 65°35' E 012°24'2 4.5
2017-Dec-16 10:00N 65°35' E 012°18'0 0.0
2017-Dec-16 09:30N 65°35' E 012°18'2 4.6
2017-Dec-16 09:00N 65°35' E 012°24'2 4.1
2017-Dec-16 08:30N 65°35' E 012°19'1 3.0
2017-Dec-16 08:00N 65°35' E 012°22'1 2.8
2017-Dec-16 07:30N 65°35' E 012°19'0 0.1
2017-Dec-16 07:00N 65°35' E 012°19'0 0.4
2017-Dec-16 06:30N 65°35' E 012°18'0 0.0
2017-Dec-16 06:00N 65°35' E 012°18'0 0.0
2017-Dec-16 05:30N 65°35' E 012°18'0 0.0
2017-Dec-16 05:00N 65°35' E 012°18'0 0.0
2017-Dec-16 04:30N 65°35' E 012°18'0 0.0
2017-Dec-16 04:00N 65°35' E 012°18'0 0.0
2017-Dec-16 03:30N 65°35' E 012°18'0 0.0
2017-Dec-16 03:00N 65°35' E 012°18'0 0.0
2017-Dec-16 02:30N 65°35' E 012°18'0 0.0
2017-Dec-16 02:00N 65°35' E 012°18'0 0.0
2017-Dec-16 01:30N 65°35' E 012°18'0 0.0
2017-Dec-16 01:00N 65°35' E 012°18'0 0.0
2017-Dec-16 00:30N 65°35' E 012°18'0 0.0
2017-Dec-16 00:00N 65°35' E 012°18'0 0.0
2017-Dec-15 23:30N 65°35' E 012°18'0 0.0
2017-Dec-15 23:00N 65°35' E 012°18'0 0.0
2017-Dec-15 22:30N 65°35' E 012°18'0 0.0
2017-Dec-15 22:00N 65°35' E 012°18'0 0.0
2017-Dec-15 21:30N 65°35' E 012°18'1 2.0
2017-Dec-15 21:00N 65°36' E 012°17'2 4.5
2017-Dec-15 20:30N 65°38' E 012°15'510.8
2017-Dec-15 20:00N 65°43' E 012°17'612.2
2017-Dec-15 19:30N 65°48' E 012°25'3 5.2
2017-Dec-15 18:59N 65°47' E 012°31'5 9.5
2017-Dec-15 18:30N 65°43' E 012°27'3 7.0
2017-Dec-15 18:00N 65°46' E 012°30'4 6.9
2017-Dec-15 17:30N 65°49' E 012°26'0 0.8
2017-Dec-15 17:00N 65°49' E 012°26'0 0.8
2017-Dec-15 16:30N 65°49' E 012°26'5 9.6
2017-Dec-15 16:00N 65°46' E 012°33'4 7.5
2017-Dec-15 15:30N 65°43' E 012°28'2 4.2
2017-Dec-15 15:00N 65°45' E 012°29'5 9.1
2017-Dec-15 14:30N 65°49' E 012°26'0 0.0
2017-Dec-15 14:00N 65°49' E 012°26'0 0.0
2017-Dec-15 13:30N 65°49' E 012°26'0 0.0
2017-Dec-15 13:00N 65°49' E 012°26'0 0.2
2017-Dec-15 12:30N 65°49' E 012°26'4 7.2
2017-Dec-15 12:01N 65°51' E 012°34'2 4.9
2017-Dec-15 11:30N 65°49' E 012°29'1 2.8
2017-Dec-15 11:01N 65°50' E 012°32'3 4.9
2017-Dec-15 10:30N 65°49' E 012°26'0 0.1
2017-Dec-15 10:00N 65°49' E 012°26'0 0.0
2017-Dec-15 09:30N 65°49' E 012°26'4 8.4
2017-Dec-15 09:00N 65°45' E 012°29'2 4.3
2017-Dec-15 08:30N 65°43' E 012°28'510.5
2017-Dec-15 08:00N 65°49' E 012°28'1 2.5
2017-Dec-15 07:30N 65°49' E 012°26'0 0.0
2017-Dec-15 07:00N 65°49' E 012°26'0 0.0
2017-Dec-15 06:30N 65°49' E 012°26'0 0.0
2017-Dec-15 06:00N 65°49' E 012°26'0 0.0
2017-Dec-15 05:30N 65°49' E 012°26'0 0.0
2017-Dec-15 05:00N 65°49' E 012°26'0 0.0
2017-Dec-15 04:30N 65°49' E 012°26'0 0.0
2017-Dec-15 04:00N 65°49' E 012°26'0 0.0
2017-Dec-15 02:30N 65°49' E 012°26'0 0.0
2017-Dec-15 01:00N 65°49' E 012°26'0 0.0
2017-Dec-15 00:30N 65°49' E 012°26'7 1.1
2017-Dec-14 18:30N 65°43' E 012°28'3 6.7
2017-Dec-14 18:00N 65°46' E 012°30'4 7.3
2017-Dec-14 17:30N 65°49' E 012°26'0 0.0
2017-Dec-14 17:00N 65°49' E 012°26'0 0.0
2017-Dec-14 16:29N 65°49' E 012°26'5 9.3
2017-Dec-14 16:00N 65°46' E 012°33'2 2.2
2017-Dec-14 15:00N 65°45' E 012°29'5 9.2
2017-Dec-14 14:30N 65°49' E 012°26'0 0.0
2017-Dec-14 14:01N 65°49' E 012°26'0 0.0
2017-Dec-14 13:30N 65°49' E 012°26'0 0.0
2017-Dec-14 13:00N 65°49' E 012°26'0 0.0
2017-Dec-14 12:30N 65°49' E 012°26'0 0.0
2017-Dec-14 12:00N 65°49' E 012°26'0 0.0
2017-Dec-14 11:30N 65°49' E 012°26'0 0.0
2017-Dec-14 11:01N 65°49' E 012°26'0 0.0
2017-Dec-14 10:30N 65°49' E 012°26'0 0.0
2017-Dec-14 10:00N 65°49' E 012°26'0 0.8
2017-Dec-14 09:30N 65°49' E 012°26'5 9.7
2017-Dec-14 09:00N 65°44' E 012°28'1 2.3
2017-Dec-14 08:30N 65°43' E 012°28'611.4
2017-Dec-14 08:00N 65°49' E 012°29'2 3.3
2017-Dec-14 07:30N 65°49' E 012°26'0 0.0
2017-Dec-14 07:00N 65°49' E 012°26'0 0.0
2017-Dec-14 06:30N 65°49' E 012°26'0 0.0
2017-Dec-14 06:00N 65°49' E 012°26'0 0.0
2017-Dec-14 05:30N 65°49' E 012°26'0 0.0
2017-Dec-14 05:00N 65°49' E 012°26'0 0.0
2017-Dec-14 04:30N 65°49' E 012°26'0 0.0
2017-Dec-14 04:00N 65°49' E 012°26'0 0.0
2017-Dec-14 03:30N 65°49' E 012°26'0 0.0
2017-Dec-14 03:00N 65°49' E 012°26'0 0.0
2017-Dec-14 02:30N 65°49' E 012°26'0 0.0
2017-Dec-14 02:00N 65°49' E 012°26'0 0.0
2017-Dec-14 01:30N 65°49' E 012°26'0 0.0
2017-Dec-14 01:00N 65°49' E 012°26'0 0.0
2017-Dec-14 00:30N 65°49' E 012°26'0 0.0
2017-Dec-14 00:00N 65°49' E 012°26'0 0.0
2017-Dec-13 23:30N 65°49' E 012°26'0 0.0
2017-Dec-13 23:00N 65°49' E 012°26'0 0.0
2017-Dec-13 22:30N 65°49' E 012°26'0 0.0
2017-Dec-13 22:00N 65°49' E 012°26'0 0.0
2017-Dec-13 21:30N 65°49' E 012°26'0 0.0
2017-Dec-13 21:00N 65°49' E 012°26'0 0.0
2017-Dec-13 20:30N 65°49' E 012°26'0 0.0
2017-Dec-13 20:00N 65°49' E 012°26'0 0.0
2017-Dec-13 19:30N 65°49' E 012°26'3 5.5
2017-Dec-13 19:00N 65°47' E 012°30'5 9.2
2017-Dec-13 18:30N 65°43' E 012°28'3 6.7
2017-Dec-13 18:00N 65°46' E 012°30'4 7.4
2017-Dec-13 17:30N 65°49' E 012°26'0 0.0
2017-Dec-13 17:00N 65°49' E 012°26'0 0.1
2017-Dec-13 16:30N 65°49' E 012°26'5 9.6
2017-Dec-13 16:00N 65°46' E 012°33'4 7.4
2017-Dec-13 15:30N 65°43' E 012°28'2 3.7
2017-Dec-13 15:00N 65°45' E 012°29'5 9.7
2017-Dec-13 14:30N 65°49' E 012°26'0 0.0
2017-Dec-13 14:00N 65°49' E 012°26'0 0.0
2017-Dec-13 13:29N 65°49' E 012°26'0 0.0
2017-Dec-13 13:00N 65°49' E 012°26'0 0.0
2017-Dec-13 12:30N 65°49' E 012°26'0 0.0
2017-Dec-13 12:00N 65°49' E 012°26'0 0.0
2017-Dec-13 11:30N 65°49' E 012°26'0 0.0
2017-Dec-13 11:00N 65°49' E 012°26'0 0.0
2017-Dec-13 10:30N 65°49' E 012°26'0 0.0
2017-Dec-13 10:00N 65°49' E 012°26'0 0.5
2017-Dec-13 09:29N 65°49' E 012°26'5 9.7
2017-Dec-13 08:59N 65°44' E 012°28'1 2.2
2017-Dec-13 08:30N 65°43' E 012°27'510.7
2017-Dec-13 08:00N 65°49' E 012°28'1 2.6
2017-Dec-13 07:30N 65°49' E 012°26'0 0.0
2017-Dec-13 07:00N 65°49' E 012°26'0 0.0
2017-Dec-13 06:30N 65°49' E 012°26'0 0.0
2017-Dec-13 06:00N 65°49' E 012°26'0 0.0
2017-Dec-13 05:30N 65°49' E 012°26'0 0.0
2017-Dec-13 05:00N 65°49' E 012°26'0 0.0
2017-Dec-13 04:30N 65°49' E 012°26'0 0.0
2017-Dec-13 04:00N 65°49' E 012°26'0 0.0
2017-Dec-13 03:30N 65°49' E 012°26'0 0.0
2017-Dec-13 03:00N 65°49' E 012°26'0 0.0
2017-Dec-13 02:30N 65°49' E 012°26'0 0.0
2017-Dec-13 02:00N 65°49' E 012°26'0 0.0
2017-Dec-13 01:30N 65°49' E 012°26'0 0.0
2017-Dec-13 01:00N 65°49' E 012°26'0 0.0
2017-Dec-13 00:30N 65°49' E 012°26'0 0.0
2017-Dec-13 00:00N 65°49' E 012°26'0 0.0
2017-Dec-12 23:30N 65°49' E 012°26'0 0.0
2017-Dec-12 23:00N 65°49' E 012°26'0 0.0
2017-Dec-12 22:30N 65°49' E 012°26'0 0.0
2017-Dec-12 22:00N 65°49' E 012°26'0 0.0
2017-Dec-12 21:29N 65°49' E 012°26'0 0.0
2017-Dec-12 21:00N 65°49' E 012°26'0 0.0
2017-Dec-12 20:30N 65°49' E 012°26'0 0.0
2017-Dec-12 20:00N 65°49' E 012°26'0 0.0
2017-Dec-12 19:30N 65°49' E 012°26'3 6.1
2017-Dec-12 19:00N 65°47' E 012°30'4 8.4
2017-Dec-12 18:30N 65°43' E 012°28'4 7.2
2017-Dec-12 18:00N 65°46' E 012°30'4 7.1
2017-Dec-12 17:30N 65°49' E 012°26'0 0.0
2017-Dec-12 17:00N 65°49' E 012°26'0 0.0
2017-Dec-12 16:30N 65°49' E 012°26'5 9.5
2017-Dec-12 16:00N 65°46' E 012°33'4 7.5
2017-Dec-12 15:30N 65°43' E 012°28'2 4.8
2017-Dec-12 15:00N 65°45' E 012°29'4 8.4
2017-Dec-12 14:29N 65°49' E 012°26'0 0.0
2017-Dec-12 13:59N 65°49' E 012°26'0 0.0
2017-Dec-12 13:30N 65°49' E 012°26'1 2.8
2017-Dec-12 13:00N 65°48' E 012°24'612.9
2017-Dec-12 12:30N 65°43' E 012°14'4 7.1
2017-Dec-12 12:00N 65°41' E 012°08'0 0.0
2017-Dec-12 11:30N 65°41' E 012°08'0 0.0
2017-Dec-12 11:00N 65°41' E 012°08'3 5.4
2017-Dec-12 10:29N 65°42' E 012°13'613.0
2017-Dec-12 10:00N 65°47' E 012°22'3 5.1
2017-Dec-12 09:30N 65°49' E 012°28'510.4
2017-Dec-12 09:00N 65°44' E 012°28'0 0.9
2017-Dec-12 08:30N 65°44' E 012°28'5 9.4
2017-Dec-12 08:00N 65°49' E 012°27'1 1.8
2017-Dec-12 07:30N 65°49' E 012°26'0 0.0
2017-Dec-12 07:00N 65°49' E 012°26'0 0.0
2017-Dec-12 06:30N 65°49' E 012°26'0 0.0
2017-Dec-12 06:00N 65°49' E 012°26'0 0.0
2017-Dec-12 05:30N 65°49' E 012°26'0 0.0
2017-Dec-12 05:00N 65°49' E 012°26'0 0.0
2017-Dec-12 04:30N 65°49' E 012°26'0 0.0
2017-Dec-12 04:00N 65°49' E 012°26'0 0.0
2017-Dec-12 03:29N 65°49' E 012°26'0 0.0
2017-Dec-12 03:00N 65°49' E 012°26'0 0.0
2017-Dec-12 02:30N 65°49' E 012°26'0 0.0
2017-Dec-12 02:00N 65°49' E 012°26'0 0.0
2017-Dec-12 01:30N 65°49' E 012°26'0 0.0
2017-Dec-12 01:00N 65°49' E 012°26'0 0.0
2017-Dec-12 00:30N 65°49' E 012°26'0 0.0
2017-Dec-12 00:00N 65°49' E 012°26'0 0.0
2017-Dec-11 23:30N 65°49' E 012°26'0 0.0
2017-Dec-11 23:00N 65°49' E 012°26'0 0.0
2017-Dec-11 22:29N 65°49' E 012°26'0 0.0
2017-Dec-11 22:00N 65°49' E 012°26'0 0.0
2017-Dec-11 21:30N 65°49' E 012°26'0 0.0
2017-Dec-11 21:00N 65°49' E 012°26'0 0.0
2017-Dec-11 20:30N 65°49' E 012°26'0 0.0
2017-Dec-11 20:00N 65°49' E 012°26'0 0.0
2017-Dec-11 19:30N 65°49' E 012°26'3 5.8
2017-Dec-11 19:00N 65°47' E 012°30'4 8.9
2017-Dec-11 18:30N 65°43' E 012°28'4 7.9
2017-Dec-11 18:00N 65°47' E 012°30'3 6.4
2017-Dec-11 17:30N 65°49' E 012°26'0 0.0
2017-Dec-11 17:00N 65°49' E 012°26'1 2.5
2017-Dec-11 16:30N 65°49' E 012°28'4 7.3
2017-Dec-11 16:00N 65°46' E 012°33'4 7.3
2017-Dec-11 15:30N 65°43' E 012°28'3 5.6
2017-Dec-11 15:00N 65°45' E 012°29'4 7.9
2017-Dec-11 14:29N 65°49' E 012°26'0 0.0
2017-Dec-11 13:53N 65°49' E 012°26'0 0.0
2017-Dec-11 13:30N 65°49' E 012°26'0 0.0
2017-Dec-11 13:00N 65°49' E 012°26'0 0.0
2017-Dec-11 12:30N 65°49' E 012°26'0 0.0
2017-Dec-11 12:00N 65°49' E 012°26'0 0.0
2017-Dec-11 11:30N 65°49' E 012°26'0 0.0
2017-Dec-11 11:00N 65°49' E 012°26'0 0.0
2017-Dec-11 10:30N 65°49' E 012°26'0 0.0
2017-Dec-11 10:00N 65°49' E 012°26'0 0.1
2017-Dec-11 09:30N 65°49' E 012°26'5 9.1
2017-Dec-11 09:00N 65°45' E 012°29'1 2.8
2017-Dec-11 08:30N 65°43' E 012°28'510.5
2017-Dec-11 08:00N 65°49' E 012°29'2 3.0
2017-Dec-11 07:29N 65°49' E 012°26'0 0.0
2017-Dec-11 07:00N 65°49' E 012°26'0 0.0
2017-Dec-11 06:30N 65°49' E 012°26'0 0.0
2017-Dec-11 06:00N 65°49' E 012°26'0 0.0
2017-Dec-11 05:30N 65°49' E 012°26'0 0.0
2017-Dec-11 05:00N 65°49' E 012°26'0 0.0
2017-Dec-11 04:30N 65°49' E 012°26'0 0.0
2017-Dec-11 04:00N 65°49' E 012°26'0 0.0
2017-Dec-11 03:30N 65°49' E 012°26'0 0.0
2017-Dec-11 03:00N 65°49' E 012°26'0 0.0
2017-Dec-11 02:30N 65°49' E 012°26'0 0.0
2017-Dec-11 02:00N 65°49' E 012°26'0 0.0
2017-Dec-11 01:30N 65°49' E 012°26'0 0.0
2017-Dec-11 01:00N 65°49' E 012°26'0 0.0
2017-Dec-11 00:29N 65°49' E 012°26'0 0.0
2017-Dec-11 00:00N 65°49' E 012°26'0 0.0
2017-Dec-10 23:29N 65°49' E 012°26'0 0.0
2017-Dec-10 23:00N 65°49' E 012°26'0 0.0
2017-Dec-10 22:30N 65°49' E 012°26'0 0.0
2017-Dec-10 22:00N 65°49' E 012°26'0 0.0
2017-Dec-10 21:30N 65°49' E 012°26'0 0.0
2017-Dec-10 21:00N 65°49' E 012°26'0 0.0
2017-Dec-10 20:30N 65°49' E 012°26'0 0.0
2017-Dec-10 20:00N 65°49' E 012°26'0 0.0
2017-Dec-10 19:30N 65°49' E 012°26'3 6.2
2017-Dec-10 19:00N 65°47' E 012°30'4 8.3
2017-Dec-10 18:30N 65°43' E 012°28'4 7.0
2017-Dec-10 18:00N 65°46' E 012°30'4 7.0
2017-Dec-10 17:29N 65°49' E 012°26'0 0.8
2017-Dec-10 17:00N 65°49' E 012°26'0 0.8
2017-Dec-10 16:30N 65°49' E 012°26'5 9.8
2017-Dec-10 16:00N 65°46' E 012°33'4 7.3
2017-Dec-10 15:30N 65°43' E 012°28'3 5.3
2017-Dec-10 15:00N 65°45' E 012°29'4 8.1
2017-Dec-10 14:30N 65°49' E 012°26'0 0.0
2017-Dec-10 14:00N 65°49' E 012°26'3 5.8
2017-Dec-10 13:30N 65°52' E 012°22'611.7
2017-Dec-10 13:00N 65°58' E 012°26'612.2
2017-Dec-10 12:30N 66°02' E 012°37'0 0.5
2017-Dec-10 12:00N 66°01' E 012°37'0 0.0
2017-Dec-10 11:30N 66°01' E 012°37'0 0.0
2017-Dec-10 11:00N 66°01' E 012°37'0 0.0
2017-Dec-10 10:30N 66°01' E 012°37'0 0.0
2017-Dec-10 10:00N 66°01' E 012°37'0 0.0
2017-Dec-10 09:30N 66°01' E 012°37'0 0.0
2017-Dec-10 09:00N 66°01' E 012°37'0 0.0
2017-Dec-10 08:30N 66°01' E 012°37'0 0.0
2017-Dec-10 08:00N 66°01' E 012°37'0 0.0
2017-Dec-10 07:30N 66°01' E 012°37'0 0.0
2017-Dec-10 07:00N 66°01' E 012°37'0 0.0
2017-Dec-10 06:30N 66°01' E 012°37'0 0.0
2017-Dec-10 06:00N 66°01' E 012°37'0 0.0
2017-Dec-10 05:30N 66°01' E 012°37'0 0.0
2017-Dec-10 05:00N 66°01' E 012°37'0 0.0
2017-Dec-10 04:30N 66°01' E 012°37'0 0.0
2017-Dec-10 03:59N 66°01' E 012°37'0 0.0
2017-Dec-10 03:30N 66°01' E 012°37'0 0.0
2017-Dec-10 03:00N 66°01' E 012°37'0 0.0
2017-Dec-10 02:30N 66°01' E 012°37'0 0.0
2017-Dec-10 02:00N 66°01' E 012°37'0 0.0
2017-Dec-10 01:30N 66°01' E 012°37'0 0.0
2017-Dec-10 01:00N 66°01' E 012°37'0 0.0
2017-Dec-10 00:30N 66°01' E 012°37'0 0.0
2017-Dec-09 23:59N 66°01' E 012°37'0 0.0
2017-Dec-09 23:30N 66°01' E 012°37'0 0.0
2017-Dec-09 23:00N 66°01' E 012°37'0 0.0
2017-Dec-09 22:30N 66°01' E 012°37'0 0.0
2017-Dec-09 22:00N 66°01' E 012°37'0 0.0
2017-Dec-09 21:29N 66°01' E 012°37'0 0.0
2017-Dec-09 21:00N 66°01' E 012°37'0 0.0
2017-Dec-09 20:30N 66°01' E 012°37'0 0.0
2017-Dec-09 20:00N 66°01' E 012°37'0 0.0
2017-Dec-09 19:30N 66°01' E 012°37'0 0.0
2017-Dec-09 19:00N 66°01' E 012°37'0 0.0
2017-Dec-09 18:29N 66°01' E 012°37'0 0.0
2017-Dec-09 18:00N 66°01' E 012°37'0 0.0
2017-Dec-09 17:30N 66°01' E 012°37'0 0.0
2017-Dec-09 17:00N 66°01' E 012°37'0 0.0
2017-Dec-09 16:30N 66°01' E 012°37'0 0.0
2017-Dec-09 16:00N 66°01' E 012°37'0 0.0
2017-Dec-09 15:30N 66°01' E 012°37'0 0.0
2017-Dec-09 15:00N 66°01' E 012°37'0 0.0
2017-Dec-09 14:30N 66°01' E 012°37'0 0.0
2017-Dec-09 14:00N 66°01' E 012°37'0 0.0
2017-Dec-09 13:30N 66°01' E 012°37'0 0.0
2017-Dec-09 13:00N 66°01' E 012°37'0 0.0
2017-Dec-09 12:30N 66°01' E 012°37'0 0.0
2017-Dec-09 12:00N 66°01' E 012°37'0 0.0
2017-Dec-09 11:30N 66°01' E 012°37'0 0.0
2017-Dec-09 11:00N 66°01' E 012°37'0 0.0
2017-Dec-09 10:30N 66°01' E 012°37'0 0.0
2017-Dec-09 10:00N 66°01' E 012°37'0 0.0
2017-Dec-09 09:30N 66°01' E 012°37'0 0.0
2017-Dec-09 09:00N 66°01' E 012°37'0 0.0
2017-Dec-09 08:30N 66°01' E 012°37'0 0.0
2017-Dec-09 08:00N 66°01' E 012°37'0 0.0
2017-Dec-09 07:30N 66°01' E 012°37'0 0.0
2017-Dec-09 07:00N 66°01' E 012°37'0 0.0
2017-Dec-09 06:30N 66°01' E 012°37'0 0.0
2017-Dec-09 05:59N 66°01' E 012°37'0 0.0
2017-Dec-09 05:30N 66°01' E 012°37'0 0.0
2017-Dec-09 05:00N 66°01' E 012°37'0 0.0
2017-Dec-09 04:30N 66°01' E 012°37'0 0.0
2017-Dec-09 04:00N 66°01' E 012°37'0 0.0
2017-Dec-09 03:30N 66°01' E 012°37'0 0.0
2017-Dec-09 03:00N 66°01' E 012°37'0 0.0
2017-Dec-09 02:30N 66°01' E 012°37'0 0.0
2017-Dec-09 02:00N 66°01' E 012°37'0 0.0
2017-Dec-09 01:30N 66°01' E 012°37'0 0.0
2017-Dec-09 01:00N 66°01' E 012°37'0 0.0
2017-Dec-09 00:30N 66°01' E 012°37'0 0.0
2017-Dec-09 00:00N 66°01' E 012°37'0 0.0
2017-Dec-08 23:30N 66°01' E 012°37'0 0.0
2017-Dec-08 23:00N 66°01' E 012°37'0 0.0
2017-Dec-08 22:30N 66°01' E 012°37'0 0.0
2017-Dec-08 22:00N 66°01' E 012°37'0 0.0
2017-Dec-08 21:30N 66°01' E 012°37'0 0.0
2017-Dec-08 21:00N 66°01' E 012°37'0 0.0
2017-Dec-08 20:30N 66°01' E 012°37'0 0.0
2017-Dec-08 20:00N 66°01' E 012°37'0 0.0
2017-Dec-08 19:30N 66°01' E 012°37'0 0.0
2017-Dec-08 19:00N 66°01' E 012°37'0 0.0
2017-Dec-08 18:30N 66°01' E 012°37'0 0.0
2017-Dec-08 18:00N 66°01' E 012°37'0 0.0
2017-Dec-08 17:30N 66°01' E 012°37'0 0.0
2017-Dec-08 17:00N 66°01' E 012°37'0 0.0
2017-Dec-08 16:30N 66°01' E 012°37'0 0.0
2017-Dec-08 16:00N 66°01' E 012°37'0 0.0
2017-Dec-08 15:30N 66°01' E 012°37'0 0.0
2017-Dec-08 15:00N 66°01' E 012°37'0 0.0
2017-Dec-08 14:30N 66°01' E 012°37'0 0.0
2017-Dec-08 14:00N 66°01' E 012°37'0 0.0
2017-Dec-08 13:30N 66°01' E 012°37'0 0.0
2017-Dec-08 13:00N 66°01' E 012°37'0 0.0
2017-Dec-08 12:30N 66°01' E 012°37'0 0.0
2017-Dec-08 12:00N 66°01' E 012°37'0 0.0
2017-Dec-08 11:30N 66°01' E 012°37'0 0.0
2017-Dec-08 11:00N 66°01' E 012°37'0 0.0
2017-Dec-08 10:29N 66°01' E 012°37'0 0.0
2017-Dec-08 10:00N 66°01' E 012°37'0 0.0
2017-Dec-08 09:30N 66°01' E 012°37'0 0.0
2017-Dec-08 09:00N 66°01' E 012°37'0 0.0
2017-Dec-08 08:30N 66°01' E 012°37'0 0.0
2017-Dec-08 08:00N 66°01' E 012°37'0 0.0
2017-Dec-08 07:30N 66°01' E 012°37'0 0.0
2017-Dec-08 07:00N 66°01' E 012°37'0 0.0
2017-Dec-08 06:30N 66°01' E 012°37'0 0.1
2017-Dec-08 06:00N 66°01' E 012°38'0 0.1
2017-Dec-08 05:30N 66°01' E 012°37'0 0.0
2017-Dec-08 05:00N 66°01' E 012°37'0 0.0
2017-Dec-08 04:30N 66°01' E 012°37'0 0.0
2017-Dec-08 04:00N 66°01' E 012°37'0 0.0
2017-Dec-08 03:30N 66°01' E 012°37'0 0.0
2017-Dec-08 02:59N 66°01' E 012°37'0 0.0
2017-Dec-08 02:30N 66°01' E 012°37'0 0.0
2017-Dec-08 02:00N 66°01' E 012°37'0 0.0
2017-Dec-08 01:30N 66°01' E 012°37'0 0.0
2017-Dec-08 01:00N 66°01' E 012°37'0 0.0
2017-Dec-08 00:30N 66°01' E 012°37'0 0.0
2017-Dec-08 00:00N 66°01' E 012°37'0 0.0
2017-Dec-07 23:30N 66°01' E 012°37'0 0.0
2017-Dec-07 23:00N 66°01' E 012°37'0 0.0
2017-Dec-07 22:30N 66°01' E 012°37'0 0.0
2017-Dec-07 22:00N 66°01' E 012°37'  
Track history (hours):
 
Tides and Currents Weather Stations Pressure Air Temp Water Temp Dewpoint Dewpoint Depression Visibility Wind Speed Wind Dir Waves Ship Positions

Hornstind

Last reported at 2017-Dec-17 21:30 UTC. Time now 2017-Dec-17 21:58 UTC.
Position N 65°49' E 012°26'.

Length 70 m.

Type: Passenger vessel. MMSI: 257147000.

Date/timePositionNaut miles runAvg speedWind from/ knotsBaromVisibWave heightAir tempDewpointWater temp
2017-Dec-17 21:30N 65°49' E 012°26'0 0.0
2017-Dec-17 21:00N 65°49' E 012°26'0 0.0
2017-Dec-17 20:30N 65°49' E 012°26'0 0.0
2017-Dec-17 20:00N 65°49' E 012°26'0 0.0
2017-Dec-17 19:29N 65°49' E 012°26'3 5.9
2017-Dec-17 18:59N 65°47' E 012°30'4 8.9
2017-Dec-17 18:30N 65°43' E 012°28'3 6.7
2017-Dec-17 18:00N 65°46' E 012°30'4 7.1
2017-Dec-17 17:29N 65°49' E 012°26'0 0.7
2017-Dec-17 17:00N 65°49' E 012°26'0 0.7
2017-Dec-17 16:30N 65°49' E 012°26'5 9.4
2017-Dec-17 16:00N 65°46' E 012°33'4 7.6
2017-Dec-17 15:30N 65°43' E 012°28'2 4.4
2017-Dec-17 15:00N 65°45' E 012°29'5 9.2
2017-Dec-17 14:30N 65°49' E 012°26'0 0.0
2017-Dec-17 14:00N 65°49' E 012°26'0 0.0
2017-Dec-17 13:30N 65°49' E 012°26'0 0.0
2017-Dec-17 13:00N 65°49' E 012°26'0 0.0
2017-Dec-17 12:30N 65°49' E 012°26'1 2.6
2017-Dec-17 12:00N 65°48' E 012°24'713.2
2017-Dec-17 11:30N 65°42' E 012°16'612.6
2017-Dec-17 11:00N 65°36' E 012°20'2 4.0
2017-Dec-17 10:30N 65°34' E 012°23'2 4.4
2017-Dec-17 10:00N 65°35' E 012°18'0 0.0
2017-Dec-17 09:30N 65°35' E 012°18'2 4.5
2017-Dec-17 09:00N 65°35' E 012°24'2 4.2
2017-Dec-17 08:29N 65°35' E 012°18'2 3.5
2017-Dec-17 08:00N 65°35' E 012°22'2 3.4
2017-Dec-17 07:30N 65°35' E 012°18'0 0.0
2017-Dec-17 07:00N 65°35' E 012°18'0 0.0
2017-Dec-17 06:30N 65°35' E 012°18'0 0.0
2017-Dec-17 06:00N 65°35' E 012°18'0 0.0
2017-Dec-17 05:30N 65°35' E 012°18'0 0.0
2017-Dec-17 05:00N 65°35' E 012°18'0 0.0
2017-Dec-17 04:30N 65°35' E 012°18'0 0.0
2017-Dec-17 04:00N 65°35' E 012°18'0 0.0
2017-Dec-17 03:30N 65°35' E 012°18'0 0.0
2017-Dec-17 03:00N 65°35' E 012°18'0 0.0
2017-Dec-17 02:30N 65°35' E 012°18'0 0.0
2017-Dec-17 02:00N 65°35' E 012°18'0 0.0
2017-Dec-17 01:30N 65°35' E 012°18'0 0.0
2017-Dec-17 00:59N 65°35' E 012°18'0 0.0
2017-Dec-17 00:30N 65°35' E 012°18'0 0.0
2017-Dec-17 00:00N 65°35' E 012°18'0 0.0
2017-Dec-16 23:30N 65°35' E 012°18'0 0.0
2017-Dec-16 23:00N 65°35' E 012°18'0 0.0
2017-Dec-16 22:30N 65°35' E 012°18'0 0.0
2017-Dec-16 22:00N 65°35' E 012°18'2 4.6
2017-Dec-16 21:30N 65°35' E 012°24'1 2.2
2017-Dec-16 21:00N 65°35' E 012°21'1 2.1
2017-Dec-16 20:30N 65°35' E 012°24'1 2.9
2017-Dec-16 20:00N 65°35' E 012°20'1 1.6
2017-Dec-16 19:30N 65°35' E 012°18'1 2.3
2017-Dec-16 19:00N 65°35' E 012°21'1 2.2
2017-Dec-16 18:30N 65°35' E 012°24'0 0.0
2017-Dec-16 18:00N 65°35' E 012°24'2 4.5
2017-Dec-16 17:30N 65°35' E 012°18'0 0.0
2017-Dec-16 17:00N 65°35' E 012°18'2 3.7
2017-Dec-16 16:30N 65°35' E 012°23'0 0.8
2017-Dec-16 16:00N 65°35' E 012°24'0 0.0
2017-Dec-16 15:30N 65°35' E 012°24'0 0.3
2017-Dec-16 15:00N 65°35' E 012°24'2 4.7
2017-Dec-16 14:30N 65°35' E 012°18'0 0.0
2017-Dec-16 14:00N 65°35' E 012°18'1 1.4
2017-Dec-16 13:30N 65°35' E 012°20'2 3.2
2017-Dec-16 13:00N 65°35' E 012°24'0 0.0
2017-Dec-16 12:30N 65°35' E 012°24'2 4.4
2017-Dec-16 11:59N 65°35' E 012°18'2 4.6
2017-Dec-16 11:30N 65°35' E 012°24'0 0.0
2017-Dec-16 11:00N 65°35' E 012°24'0 0.1
2017-Dec-16 10:30N 65°35' E 012°24'2 4.5
2017-Dec-16 10:00N 65°35' E 012°18'0 0.0
2017-Dec-16 09:30N 65°35' E 012°18'2 4.6
2017-Dec-16 09:00N 65°35' E 012°24'2 4.1
2017-Dec-16 08:30N 65°35' E 012°19'1 3.0
2017-Dec-16 08:00N 65°35' E 012°22'1 2.8
2017-Dec-16 07:30N 65°35' E 012°19'0 0.1
2017-Dec-16 07:00N 65°35' E 012°19'0 0.4
2017-Dec-16 06:30N 65°35' E 012°18'0 0.0
2017-Dec-16 06:00N 65°35' E 012°18'0 0.0
2017-Dec-16 05:30N 65°35' E 012°18'0 0.0
2017-Dec-16 05:00N 65°35' E 012°18'0 0.0
2017-Dec-16 04:30N 65°35' E 012°18'0 0.0
2017-Dec-16 04:00N 65°35' E 012°18'0 0.0
2017-Dec-16 03:30N 65°35' E 012°18'0 0.0
2017-Dec-16 03:00N 65°35' E 012°18'0 0.0
2017-Dec-16 02:30N 65°35' E 012°18'0 0.0
2017-Dec-16 02:00N 65°35' E 012°18'0 0.0
2017-Dec-16 01:30N 65°35' E 012°18'0 0.0
2017-Dec-16 01:00N 65°35' E 012°18'0 0.0
2017-Dec-16 00:30N 65°35' E 012°18'0 0.0
2017-Dec-16 00:00N 65°35' E 012°18'0 0.0
2017-Dec-15 23:30N 65°35' E 012°18'0 0.0
2017-Dec-15 23:00N 65°35' E 012°18'0 0.0
2017-Dec-15 22:30N 65°35' E 012°18'0 0.0
2017-Dec-15 22:00N 65°35' E 012°18'0 0.0
2017-Dec-15 21:30N 65°35' E 012°18'1 2.0
2017-Dec-15 21:00N 65°36' E 012°17'2 4.5
2017-Dec-15 20:30N 65°38' E 012°15'510.8
2017-Dec-15 20:00N 65°43' E 012°17'612.2
2017-Dec-15 19:30N 65°48' E 012°25'3 5.2
2017-Dec-15 18:59N 65°47' E 012°31'5 9.5
2017-Dec-15 18:30N 65°43' E 012°27'3 7.0
2017-Dec-15 18:00N 65°46' E 012°30'4 6.9
2017-Dec-15 17:30N 65°49' E 012°26'0 0.8
2017-Dec-15 17:00N 65°49' E 012°26'0 0.8
2017-Dec-15 16:30N 65°49' E 012°26'5 9.6
2017-Dec-15 16:00N 65°46' E 012°33'4 7.5
2017-Dec-15 15:30N 65°43' E 012°28'2 4.2
2017-Dec-15 15:00N 65°45' E 012°29'5 9.1
2017-Dec-15 14:30N 65°49' E 012°26'0 0.0
2017-Dec-15 14:00N 65°49' E 012°26'0 0.0
2017-Dec-15 13:30N 65°49' E 012°26'0 0.0
2017-Dec-15 13:00N 65°49' E 012°26'0 0.2
2017-Dec-15 12:30N 65°49' E 012°26'4 7.2
2017-Dec-15 12:01N 65°51' E 012°34'2 4.9
2017-Dec-15 11:30N 65°49' E 012°29'1 2.8
2017-Dec-15 11:01N 65°50' E 012°32'3 4.9
2017-Dec-15 10:30N 65°49' E 012°26'0 0.1
2017-Dec-15 10:00N 65°49' E 012°26'0 0.0
2017-Dec-15 09:30N 65°49' E 012°26'4 8.4
2017-Dec-15 09:00N 65°45' E 012°29'2 4.3
2017-Dec-15 08:30N 65°43' E 012°28'510.5
2017-Dec-15 08:00N 65°49' E 012°28'1 2.5
2017-Dec-15 07:30N 65°49' E 012°26'0 0.0
2017-Dec-15 07:00N 65°49' E 012°26'0 0.0
2017-Dec-15 06:30N 65°49' E 012°26'0 0.0
2017-Dec-15 06:00N 65°49' E 012°26'0 0.0
2017-Dec-15 05:30N 65°49' E 012°26'0 0.0
2017-Dec-15 05:00N 65°49' E 012°26'0 0.0
2017-Dec-15 04:30N 65°49' E 012°26'0 0.0
2017-Dec-15 04:00N 65°49' E 012°26'0 0.0
2017-Dec-15 02:30N 65°49' E 012°26'0 0.0
2017-Dec-15 01:00N 65°49' E 012°26'0 0.0
2017-Dec-15 00:30N 65°49' E 012°26'7 1.1
2017-Dec-14 18:30N 65°43' E 012°28'3 6.7
2017-Dec-14 18:00N 65°46' E 012°30'4 7.3
2017-Dec-14 17:30N 65°49' E 012°26'0 0.0
2017-Dec-14 17:00N 65°49' E 012°26'0 0.0
2017-Dec-14 16:29N 65°49' E 012°26'5 9.3
2017-Dec-14 16:00N 65°46' E 012°33'2 2.2
2017-Dec-14 15:00N 65°45' E 012°29'5 9.2
2017-Dec-14 14:30N 65°49' E 012°26'0 0.0
2017-Dec-14 14:01N 65°49' E 012°26'0 0.0
2017-Dec-14 13:30N 65°49' E 012°26'0 0.0
2017-Dec-14 13:00N 65°49' E 012°26'0 0.0
2017-Dec-14 12:30N 65°49' E 012°26'0 0.0
2017-Dec-14 12:00N 65°49' E 012°26'0 0.0
2017-Dec-14 11:30N 65°49' E 012°26'0 0.0
2017-Dec-14 11:01N 65°49' E 012°26'0 0.0
2017-Dec-14 10:30N 65°49' E 012°26'0 0.0
2017-Dec-14 10:00N 65°49' E 012°26'0 0.8
2017-Dec-14 09:30N 65°49' E 012°26'5 9.7
2017-Dec-14 09:00N 65°44' E 012°28'1 2.3
2017-Dec-14 08:30N 65°43' E 012°28'611.4
2017-Dec-14 08:00N 65°49' E 012°29'2 3.3
2017-Dec-14 07:30N 65°49' E 012°26'0 0.0
2017-Dec-14 07:00N 65°49' E 012°26'0 0.0
2017-Dec-14 06:30N 65°49' E 012°26'0 0.0
2017-Dec-14 06:00N 65°49' E 012°26'0 0.0
2017-Dec-14 05:30N 65°49' E 012°26'0 0.0
2017-Dec-14 05:00N 65°49' E 012°26'0 0.0
2017-Dec-14 04:30N 65°49' E 012°26'0 0.0
2017-Dec-14 04:00N 65°49' E 012°26'0 0.0
2017-Dec-14 03:30N 65°49' E 012°26'0 0.0
2017-Dec-14 03:00N 65°49' E 012°26'0 0.0
2017-Dec-14 02:30N 65°49' E 012°26'0 0.0
2017-Dec-14 02:00N 65°49' E 012°26'0 0.0
2017-Dec-14 01:30N 65°49' E 012°26'0 0.0
2017-Dec-14 01:00N 65°49' E 012°26'0 0.0
2017-Dec-14 00:30N 65°49' E 012°26'0 0.0
2017-Dec-14 00:00N 65°49' E 012°26'0 0.0
2017-Dec-13 23:30N 65°49' E 012°26'0 0.0
2017-Dec-13 23:00N 65°49' E 012°26'0 0.0
2017-Dec-13 22:30N 65°49' E 012°26'0 0.0
2017-Dec-13 22:00N 65°49' E 012°26'0 0.0
2017-Dec-13 21:30N 65°49' E 012°26'0 0.0
2017-Dec-13 21:00N 65°49' E 012°26'0 0.0
2017-Dec-13 20:30N 65°49' E 012°26'0 0.0
2017-Dec-13 20:00N 65°49' E 012°26'0 0.0
2017-Dec-13 19:30N 65°49' E 012°26'3 5.5
2017-Dec-13 19:00N 65°47' E 012°30'5 9.2
2017-Dec-13 18:30N 65°43' E 012°28'3 6.7
2017-Dec-13 18:00N 65°46' E 012°30'4 7.4
2017-Dec-13 17:30N 65°49' E 012°26'0 0.0
2017-Dec-13 17:00N 65°49' E 012°26'0 0.1
2017-Dec-13 16:30N 65°49' E 012°26'5 9.6
2017-Dec-13 16:00N 65°46' E 012°33'4 7.4
2017-Dec-13 15:30N 65°43' E 012°28'2 3.7
2017-Dec-13 15:00N 65°45' E 012°29'5 9.7
2017-Dec-13 14:30N 65°49' E 012°26'0 0.0
2017-Dec-13 14:00N 65°49' E 012°26'0 0.0
2017-Dec-13 13:29N 65°49' E 012°26'0 0.0
2017-Dec-13 13:00N 65°49' E 012°26'0 0.0
2017-Dec-13 12:30N 65°49' E 012°26'0 0.0
2017-Dec-13 12:00N 65°49' E 012°26'0 0.0
2017-Dec-13 11:30N 65°49' E 012°26'0 0.0
2017-Dec-13 11:00N 65°49' E 012°26'0 0.0
2017-Dec-13 10:30N 65°49' E 012°26'0 0.0
2017-Dec-13 10:00N 65°49' E 012°26'0 0.5
2017-Dec-13 09:29N 65°49' E 012°26'5 9.7
2017-Dec-13 08:59N 65°44' E 012°28'1 2.2
2017-Dec-13 08:30N 65°43' E 012°27'510.7
2017-Dec-13 08:00N 65°49' E 012°28'1 2.6
2017-Dec-13 07:30N 65°49' E 012°26'0 0.0
2017-Dec-13 07:00N 65°49' E 012°26'0 0.0
2017-Dec-13 06:30N 65°49' E 012°26'0 0.0
2017-Dec-13 06:00N 65°49' E 012°26'0 0.0
2017-Dec-13 05:30N 65°49' E 012°26'0 0.0
2017-Dec-13 05:00N 65°49' E 012°26'0 0.0
2017-Dec-13 04:30N 65°49' E 012°26'0 0.0
2017-Dec-13 04:00N 65°49' E 012°26'0 0.0
2017-Dec-13 03:30N 65°49' E 012°26'0 0.0
2017-Dec-13 03:00N 65°49' E 012°26'0 0.0
2017-Dec-13 02:30N 65°49' E 012°26'0 0.0
2017-Dec-13 02:00N 65°49' E 012°26'0 0.0
2017-Dec-13 01:30N 65°49' E 012°26'0 0.0
2017-Dec-13 01:00N 65°49' E 012°26'0 0.0
2017-Dec-13 00:30N 65°49' E 012°26'0 0.0
2017-Dec-13 00:00N 65°49' E 012°26'0 0.0
2017-Dec-12 23:30N 65°49' E 012°26'0 0.0
2017-Dec-12 23:00N 65°49' E 012°26'0 0.0
2017-Dec-12 22:30N 65°49' E 012°26'0 0.0
2017-Dec-12 22:00N 65°49' E 012°26'0 0.0
2017-Dec-12 21:29N 65°49' E 012°26'0 0.0
2017-Dec-12 21:00N 65°49' E 012°26'0 0.0
2017-Dec-12 20:30N 65°49' E 012°26'0 0.0
2017-Dec-12 20:00N 65°49' E 012°26'0 0.0
2017-Dec-12 19:30N 65°49' E 012°26'3 6.1
2017-Dec-12 19:00N 65°47' E 012°30'4 8.4
2017-Dec-12 18:30N 65°43' E 012°28'4 7.2
2017-Dec-12 18:00N 65°46' E 012°30'4 7.1
2017-Dec-12 17:30N 65°49' E 012°26'0 0.0
2017-Dec-12 17:00N 65°49' E 012°26'0 0.0
2017-Dec-12 16:30N 65°49' E 012°26'5 9.5
2017-Dec-12 16:00N 65°46' E 012°33'4 7.5
2017-Dec-12 15:30N 65°43' E 012°28'2 4.8
2017-Dec-12 15:00N 65°45' E 012°29'4 8.4
2017-Dec-12 14:29N 65°49' E 012°26'0 0.0
2017-Dec-12 13:59N 65°49' E 012°26'0 0.0
2017-Dec-12 13:30N 65°49' E 012°26'1 2.8
2017-Dec-12 13:00N 65°48' E 012°24'612.9
2017-Dec-12 12:30N 65°43' E 012°14'4 7.1
2017-Dec-12 12:00N 65°41' E 012°08'0 0.0
2017-Dec-12 11:30N 65°41' E 012°08'0 0.0
2017-Dec-12 11:00N 65°41' E 012°08'3 5.4
2017-Dec-12 10:29N 65°42' E 012°13'613.0
2017-Dec-12 10:00N 65°47' E 012°22'3 5.1
2017-Dec-12 09:30N 65°49' E 012°28'510.4
2017-Dec-12 09:00N 65°44' E 012°28'0 0.9
2017-Dec-12 08:30N 65°44' E 012°28'5 9.4
2017-Dec-12 08:00N 65°49' E 012°27'1 1.8
2017-Dec-12 07:30N 65°49' E 012°26'0 0.0
2017-Dec-12 07:00N 65°49' E 012°26'0 0.0
2017-Dec-12 06:30N 65°49' E 012°26'0 0.0
2017-Dec-12 06:00N 65°49' E 012°26'0 0.0
2017-Dec-12 05:30N 65°49' E 012°26'0 0.0
2017-Dec-12 05:00N 65°49' E 012°26'0 0.0
2017-Dec-12 04:30N 65°49' E 012°26'0 0.0
2017-Dec-12 04:00N 65°49' E 012°26'0 0.0
2017-Dec-12 03:29N 65°49' E 012°26'0 0.0
2017-Dec-12 03:00N 65°49' E 012°26'0 0.0
2017-Dec-12 02:30N 65°49' E 012°26'0 0.0
2017-Dec-12 02:00N 65°49' E 012°26'0 0.0
2017-Dec-12 01:30N 65°49' E 012°26'0 0.0
2017-Dec-12 01:00N 65°49' E 012°26'0 0.0
2017-Dec-12 00:30N 65°49' E 012°26'0 0.0
2017-Dec-12 00:00N 65°49' E 012°26'0 0.0
2017-Dec-11 23:30N 65°49' E 012°26'0 0.0
2017-Dec-11 23:00N 65°49' E 012°26'0 0.0
2017-Dec-11 22:29N 65°49' E 012°26'0 0.0
2017-Dec-11 22:00N 65°49' E 012°26'0 0.0
2017-Dec-11 21:30N 65°49' E 012°26'0 0.0
2017-Dec-11 21:00N 65°49' E 012°26'0 0.0
2017-Dec-11 20:30N 65°49' E 012°26'0 0.0
2017-Dec-11 20:00N 65°49' E 012°26'0 0.0
2017-Dec-11 19:30N 65°49' E 012°26'3 5.8
2017-Dec-11 19:00N 65°47' E 012°30'4 8.9
2017-Dec-11 18:30N 65°43' E 012°28'4 7.9
2017-Dec-11 18:00N 65°47' E 012°30'3 6.4
2017-Dec-11 17:30N 65°49' E 012°26'0 0.0
2017-Dec-11 17:00N 65°49' E 012°26'1 2.5
2017-Dec-11 16:30N 65°49' E 012°28'4 7.3
2017-Dec-11 16:00N 65°46' E 012°33'4 7.3
2017-Dec-11 15:30N 65°43' E 012°28'3 5.6
2017-Dec-11 15:00N 65°45' E 012°29'4 7.9
2017-Dec-11 14:29N 65°49' E 012°26'0 0.0
2017-Dec-11 13:53N 65°49' E 012°26'0 0.0
2017-Dec-11 13:30N 65°49' E 012°26'0 0.0
2017-Dec-11 13:00N 65°49' E 012°26'0 0.0
2017-Dec-11 12:30N 65°49' E 012°26'0 0.0
2017-Dec-11 12:00N 65°49' E 012°26'0 0.0
2017-Dec-11 11:30N 65°49' E 012°26'0 0.0
2017-Dec-11 11:00N 65°49' E 012°26'0 0.0
2017-Dec-11 10:30N 65°49' E 012°26'0 0.0
2017-Dec-11 10:00N 65°49' E 012°26'0 0.1
2017-Dec-11 09:30N 65°49' E 012°26'5 9.1
2017-Dec-11 09:00N 65°45' E 012°29'1 2.8
2017-Dec-11 08:30N 65°43' E 012°28'510.5
2017-Dec-11 08:00N 65°49' E 012°29'2 3.0
2017-Dec-11 07:29N 65°49' E 012°26'0 0.0
2017-Dec-11 07:00N 65°49' E 012°26'0 0.0
2017-Dec-11 06:30N 65°49' E 012°26'0 0.0
2017-Dec-11 06:00N 65°49' E 012°26'0 0.0
2017-Dec-11 05:30N 65°49' E 012°26'0 0.0
2017-Dec-11 05:00N 65°49' E 012°26'0 0.0
2017-Dec-11 04:30N 65°49' E 012°26'0 0.0
2017-Dec-11 04:00N 65°49' E 012°26'0 0.0
2017-Dec-11 03:30N 65°49' E 012°26'0 0.0
2017-Dec-11 03:00N 65°49' E 012°26'0 0.0
2017-Dec-11 02:30N 65°49' E 012°26'0 0.0
2017-Dec-11 02:00N 65°49' E 012°26'0 0.0
2017-Dec-11 01:30N 65°49' E 012°26'0 0.0
2017-Dec-11 01:00N 65°49' E 012°26'0 0.0
2017-Dec-11 00:29N 65°49' E 012°26'0 0.0
2017-Dec-11 00:00N 65°49' E 012°26'0 0.0
2017-Dec-10 23:29N 65°49' E 012°26'0 0.0
2017-Dec-10 23:00N 65°49' E 012°26'0 0.0
2017-Dec-10 22:30N 65°49' E 012°26'0 0.0
2017-Dec-10 22:00N 65°49' E 012°26'0 0.0
2017-Dec-10 21:30N 65°49' E 012°26'0 0.0
2017-Dec-10 21:00N 65°49' E 012°26'0 0.0
2017-Dec-10 20:30N 65°49' E 012°26'0 0.0
2017-Dec-10 20:00N 65°49' E 012°26'0 0.0
2017-Dec-10 19:30N 65°49' E 012°26'3 6.2
2017-Dec-10 19:00N 65°47' E 012°30'4 8.3
2017-Dec-10 18:30N 65°43' E 012°28'4 7.0
2017-Dec-10 18:00N 65°46' E 012°30'4 7.0
2017-Dec-10 17:29N 65°49' E 012°26'0 0.8
2017-Dec-10 17:00N 65°49' E 012°26'0 0.8
2017-Dec-10 16:30N 65°49' E 012°26'5 9.8
2017-Dec-10 16:00N 65°46' E 012°33'4 7.3
2017-Dec-10 15:30N 65°43' E 012°28'3 5.3
2017-Dec-10 15:00N 65°45' E 012°29'4 8.1
2017-Dec-10 14:30N 65°49' E 012°26'0 0.0
2017-Dec-10 14:00N 65°49' E 012°26'3 5.8
2017-Dec-10 13:30N 65°52' E 012°22'611.7
2017-Dec-10 13:00N 65°58' E 012°26'612.2
2017-Dec-10 12:30N 66°02' E 012°37'0 0.5
2017-Dec-10 12:00N 66°01' E 012°37'0 0.0
2017-Dec-10 11:30N 66°01' E 012°37'0 0.0
2017-Dec-10 11:00N 66°01' E 012°37'0 0.0
2017-Dec-10 10:30N 66°01' E 012°37'0 0.0
2017-Dec-10 10:00N 66°01' E 012°37'0 0.0
2017-Dec-10 09:30N 66°01' E 012°37'0 0.0
2017-Dec-10 09:00N 66°01' E 012°37'0 0.0
2017-Dec-10 08:30N 66°01' E 012°37'0 0.0
2017-Dec-10 08:00N 66°01' E 012°37'0 0.0
2017-Dec-10 07:30N 66°01' E 012°37'0 0.0
2017-Dec-10 07:00N 66°01' E 012°37'0 0.0
2017-Dec-10 06:30N 66°01' E 012°37'0 0.0
2017-Dec-10 06:00N 66°01' E 012°37'0 0.0
2017-Dec-10 05:30N 66°01' E 012°37'0 0.0
2017-Dec-10 05:00N 66°01' E 012°37'0 0.0
2017-Dec-10 04:30N 66°01' E 012°37'0 0.0
2017-Dec-10 03:59N 66°01' E 012°37'0 0.0
2017-Dec-10 03:30N 66°01' E 012°37'0 0.0
2017-Dec-10 03:00N 66°01' E 012°37'0 0.0
2017-Dec-10 02:30N 66°01' E 012°37'0 0.0
2017-Dec-10 02:00N 66°01' E 012°37'0 0.0
2017-Dec-10 01:30N 66°01' E 012°37'0 0.0
2017-Dec-10 01:00N 66°01' E 012°37'0 0.0
2017-Dec-10 00:30N 66°01' E 012°37'0 0.0
2017-Dec-09 23:59N 66°01' E 012°37'0 0.0
2017-Dec-09 23:30N 66°01' E 012°37'0 0.0
2017-Dec-09 23:00N 66°01' E 012°37'0 0.0
2017-Dec-09 22:30N 66°01' E 012°37'0 0.0
2017-Dec-09 22:00N 66°01' E 012°37'0 0.0
2017-Dec-09 21:29N 66°01' E 012°37'0 0.0
2017-Dec-09 21:00N 66°01' E 012°37'0 0.0
2017-Dec-09 20:30N 66°01' E 012°37'0 0.0
2017-Dec-09 20:00N 66°01' E 012°37'0 0.0
2017-Dec-09 19:30N 66°01' E 012°37'0 0.0
2017-Dec-09 19:00N 66°01' E 012°37'0 0.0
2017-Dec-09 18:29N 66°01' E 012°37'0 0.0
2017-Dec-09 18:00N 66°01' E 012°37'0 0.0
2017-Dec-09 17:30N 66°01' E 012°37'0 0.0
2017-Dec-09 17:00N 66°01' E 012°37'0 0.0
2017-Dec-09 16:30N 66°01' E 012°37'0 0.0
2017-Dec-09 16:00N 66°01' E 012°37'0 0.0
2017-Dec-09 15:30N 66°01' E 012°37'0 0.0
2017-Dec-09 15:00N 66°01' E 012°37'0 0.0
2017-Dec-09 14:30N 66°01' E 012°37'0 0.0
2017-Dec-09 14:00N 66°01' E 012°37'0 0.0
2017-Dec-09 13:30N 66°01' E 012°37'0 0.0
2017-Dec-09 13:00N 66°01' E 012°37'0 0.0
2017-Dec-09 12:30N 66°01' E 012°37'0 0.0
2017-Dec-09 12:00N 66°01' E 012°37'0 0.0
2017-Dec-09 11:30N 66°01' E 012°37'0 0.0
2017-Dec-09 11:00N 66°01' E 012°37'0 0.0
2017-Dec-09 10:30N 66°01' E 012°37'0 0.0
2017-Dec-09 10:00N 66°01' E 012°37'0 0.0
2017-Dec-09 09:30N 66°01' E 012°37'0 0.0
2017-Dec-09 09:00N 66°01' E 012°37'0 0.0
2017-Dec-09 08:30N 66°01' E 012°37'0 0.0
2017-Dec-09 08:00N 66°01' E 012°37'0 0.0
2017-Dec-09 07:30N 66°01' E 012°37'0 0.0
2017-Dec-09 07:00N 66°01' E 012°37'0 0.0
2017-Dec-09 06:30N 66°01' E 012°37'0 0.0
2017-Dec-09 05:59N 66°01' E 012°37'0 0.0
2017-Dec-09 05:30N 66°01' E 012°37'0 0.0
2017-Dec-09 05:00N 66°01' E 012°37'0 0.0
2017-Dec-09 04:30N 66°01' E 012°37'0 0.0
2017-Dec-09 04:00N 66°01' E 012°37'0 0.0
2017-Dec-09 03:30N 66°01' E 012°37'0 0.0
2017-Dec-09 03:00N 66°01' E 012°37'0 0.0
2017-Dec-09 02:30N 66°01' E 012°37'0 0.0
2017-Dec-09 02:00N 66°01' E 012°37'0 0.0
2017-Dec-09 01:30N 66°01' E 012°37'0 0.0
2017-Dec-09 01:00N 66°01' E 012°37'0 0.0
2017-Dec-09 00:30N 66°01' E 012°37'0 0.0
2017-Dec-09 00:00N 66°01' E 012°37'0 0.0
2017-Dec-08 23:30N 66°01' E 012°37'0 0.0
2017-Dec-08 23:00N 66°01' E 012°37'0 0.0
2017-Dec-08 22:30N 66°01' E 012°37'0 0.0
2017-Dec-08 22:00N 66°01' E 012°37'0 0.0
2017-Dec-08 21:30N 66°01' E 012°37'0 0.0
2017-Dec-08 21:00N 66°01' E 012°37'0 0.0
2017-Dec-08 20:30N 66°01' E 012°37'0 0.0
2017-Dec-08 20:00N 66°01' E 012°37'0 0.0
2017-Dec-08 19:30N 66°01' E 012°37'0 0.0
2017-Dec-08 19:00N 66°01' E 012°37'0 0.0
2017-Dec-08 18:30N 66°01' E 012°37'0 0.0
2017-Dec-08 18:00N 66°01' E 012°37'0 0.0
2017-Dec-08 17:30N 66°01' E 012°37'0 0.0
2017-Dec-08 17:00N 66°01' E 012°37'0 0.0
2017-Dec-08 16:30N 66°01' E 012°37'0 0.0
2017-Dec-08 16:00N 66°01' E 012°37'0 0.0
2017-Dec-08 15:30N 66°01' E 012°37'0 0.0
2017-Dec-08 15:00N 66°01' E 012°37'0 0.0
2017-Dec-08 14:30N 66°01' E 012°37'0 0.0
2017-Dec-08 14:00N 66°01' E 012°37'0 0.0
2017-Dec-08 13:30N 66°01' E 012°37'0 0.0
2017-Dec-08 13:00N 66°01' E 012°37'0 0.0
2017-Dec-08 12:30N 66°01' E 012°37'0 0.0
2017-Dec-08 12:00N 66°01' E 012°37'0 0.0
2017-Dec-08 11:30N 66°01' E 012°37'0 0.0
2017-Dec-08 11:00N 66°01' E 012°37'0 0.0
2017-Dec-08 10:29N 66°01' E 012°37'0 0.0
2017-Dec-08 10:00N 66°01' E 012°37'0 0.0
2017-Dec-08 09:30N 66°01' E 012°37'0 0.0
2017-Dec-08 09:00N 66°01' E 012°37'0 0.0
2017-Dec-08 08:30N 66°01' E 012°37'0 0.0
2017-Dec-08 08:00N 66°01' E 012°37'0 0.0
2017-Dec-08 07:30N 66°01' E 012°37'0 0.0
2017-Dec-08 07:00N 66°01' E 012°37'0 0.0
2017-Dec-08 06:30N 66°01' E 012°37'0 0.1
2017-Dec-08 06:00N 66°01' E 012°38'0 0.1
2017-Dec-08 05:30N 66°01' E 012°37'0 0.0
2017-Dec-08 05:00N 66°01' E 012°37'0 0.0
2017-Dec-08 04:30N 66°01' E 012°37'0 0.0
2017-Dec-08 04:00N 66°01' E 012°37'0 0.0
2017-Dec-08 03:30N 66°01' E 012°37'0 0.0
2017-Dec-08 02:59N 66°01' E 012°37'0 0.0
2017-Dec-08 02:30N 66°01' E 012°37'0 0.0
2017-Dec-08 02:00N 66°01' E 012°37'0 0.0
2017-Dec-08 01:30N 66°01' E 012°37'0 0.0
2017-Dec-08 01:00N 66°01' E 012°37'0 0.0
2017-Dec-08 00:30N 66°01' E 012°37'0 0.0
2017-Dec-08 00:00N 66°01' E 012°37'0 0.0
2017-Dec-07 23:30N 66°01' E 012°37'0 0.0
2017-Dec-07 23:00N 66°01' E 012°37'0 0.0
2017-Dec-07 22:30N 66°01' E 012°37'0 0.0
2017-Dec-07 22:00N 66°01' E 012°37'  

Dump ship's entire track history